Time;durP1;ratioP1;P1;durP2;ratioP2;P2;SDS_P1;SDS_P2;PMS_P1;PMS_P2;Temp;Humidity;BMP_temperature;BMP_pressure;BME280_temperature;BME280_humidity;BME280_pressure;Samples;Min_cycle;Max_cycle;Signal;HPM_P1;HPM_P2
2023/03/19 00:00:47;;;;;;;11.30;10.17;;;9.30;1.00;;;;;;5057165;28;20203;-69
2023/03/19 00:03:15;;;;;;;12.97;10.93;;;9.30;1.00;;;;;;5057707;28;20255;-70
2023/03/19 00:05:52;;;;;;;17.20;11.60;;;9.20;1.00;;;;;;5042174;28;20215;-70
2023/03/19 00:08:21;;;;;;;14.13;12.63;;;9.20;1.00;;;;;;5058108;28;20195;-70
2023/03/19 00:10:49;;;;;;;14.97;12.47;;;9.20;1.00;;;;;;5056451;28;20284;-70
2023/03/19 00:13:16;;;;;;;19.00;12.73;;;9.20;1.00;;;;;;5060803;28;20197;-69
2023/03/19 00:15:43;;;;;;;19.97;14.40;;;9.20;1.00;;;;;;5059181;28;20428;-70
2023/03/19 00:18:10;;;;;;;20.20;17.37;;;9.10;1.00;;;;;;5065912;28;20614;-70
2023/03/19 00:20:37;;;;;;;23.93;17.97;;;9.10;1.00;;;;;;5059665;28;20244;-69
2023/03/19 00:23:05;;;;;;;28.07;20.63;;;9.10;1.00;;;;;;5051477;28;20282;-66
2023/03/19 00:25:32;;;;;;;32.77;23.13;;;9.10;1.00;;;;;;5056653;28;20631;-68
2023/03/19 00:28:00;;;;;;;28.00;21.17;;;9.00;1.00;;;;;;5049816;28;20658;-68
2023/03/19 00:30:28;;;;;;;26.97;17.57;;;9.00;1.00;;;;;;5057677;28;20201;-69
2023/03/19 00:32:55;;;;;;;22.67;18.37;;;9.00;1.00;;;;;;5058308;28;20200;-70
2023/03/19 00:35:22;;;;;;;19.37;17.13;;;8.90;1.00;;;;;;5065916;28;20199;-69
2023/03/19 00:37:49;;;;;;;21.00;16.73;;;8.90;1.00;;;;;;5065893;28;20203;-68
2023/03/19 00:40:16;;;;;;;19.30;16.83;;;8.90;1.00;;;;;;5066088;28;20253;-69
2023/03/19 00:42:43;;;;;;;19.57;16.17;;;8.90;1.00;;;;;;5057197;28;20244;-69
2023/03/19 00:45:12;;;;;;;16.63;14.90;;;9.00;1.00;;;;;;5049257;28;20198;-69
2023/03/19 00:47:39;;;;;;;44.97;26.70;;;9.10;1.00;;;;;;5056944;28;20345;-67
2023/03/19 00:50:06;;;;;;;21.27;16.47;;;9.10;1.00;;;;;;5059121;28;20238;-68
2023/03/19 00:52:33;;;;;;;22.40;15.20;;;9.20;1.00;;;;;;5048436;28;20298;-67
2023/03/19 00:55:00;;;;;;;29.17;25.10;;;9.20;1.00;;;;;;5057799;28;20199;-68
2023/03/19 00:57:27;;;;;;;28.73;22.07;;;9.20;1.00;;;;;;5047912;28;20195;-67
2023/03/19 00:59:54;;;;;;;15.90;14.20;;;9.20;1.00;;;;;;5039591;28;20230;-67
2023/03/19 01:02:21;;;;;;;25.53;20.07;;;9.10;1.00;;;;;;5056703;28;20211;-68
2023/03/19 01:04:49;;;;;;;24.60;18.60;;;9.00;1.00;;;;;;5064038;28;20206;-66
2023/03/19 01:07:16;;;;;;;22.77;17.67;;;8.90;1.00;;;;;;5072347;28;20309;-67
2023/03/19 01:09:43;;;;;;;21.90;17.67;;;8.90;1.00;;;;;;5056567;28;20199;-67
2023/03/19 01:12:10;;;;;;;25.40;18.33;;;8.80;1.00;;;;;;5057383;28;20229;-67
2023/03/19 01:14:37;;;;;;;23.50;17.10;;;8.80;1.00;;;;;;5057405;28;20528;-67
2023/03/19 01:17:04;;;;;;;19.57;16.10;;;8.70;1.00;;;;;;5063173;28;20234;-69
2023/03/19 01:19:31;;;;;;;18.87;15.83;;;8.60;1.00;;;;;;5045704;28;20209;-67
2023/03/19 01:21:58;;;;;;;15.87;14.17;;;8.60;1.00;;;;;;5039609;28;20216;-68
2023/03/19 01:24:31;;;;;;;17.43;15.17;;;8.50;1.00;;;;;;5058989;28;20675;-68
2023/03/19 01:26:58;;;;;;;16.40;13.47;;;8.40;1.00;;;;;;5063035;28;20676;-68
2023/03/19 01:29:30;;;;;;;14.93;13.43;;;8.40;1.00;;;;;;5058306;28;20716;-68
2023/03/19 01:32:04;;;;;;;17.27;14.17;;;8.40;1.00;;;;;;5057011;28;20385;-68
2023/03/19 01:34:58;;;;;;;17.10;14.50;;;8.20;1.00;;;;;;5064357;28;20195;-68
2023/03/19 01:37:28;;;;;;;16.17;14.43;;;8.10;99.90;;;;;;5058094;28;20282;-67
2023/03/19 01:39:55;;;;;;;16.57;14.80;;;8.00;99.90;;;;;;5048289;28;20289;-69
2023/03/19 01:42:22;;;;;;;17.37;14.97;;;8.00;1.00;;;;;;5042025;28;20208;-69
2023/03/19 01:45:38;;;;;;;18.73;14.70;;;8.00;1.00;;;;;;5045598;28;20586;-68
2023/03/19 01:48:31;;;;;;;19.13;14.07;;;8.10;1.00;;;;;;5058975;28;20211;-68
2023/03/19 01:51:06;;;;;;;15.63;14.07;;;8.00;99.90;;;;;;5057099;28;20198;-68
2023/03/19 01:54:06;;;;;;;16.40;14.77;;;7.80;1.00;;;;;;5046741;28;20199;-69
2023/03/19 01:56:47;;;;;;;14.50;13.07;;;7.80;1.00;;;;;;5043434;28;20210;-69
2023/03/19 01:59:51;;;;;;;15.60;14.07;;;7.80;1.00;;;;;;5060486;28;20225;-71
2023/03/19 02:02:45;;;;;;;17.33;14.47;;;7.80;1.00;;;;;;5056593;28;20241;-61
2023/03/19 02:05:26;;;;;;;14.17;12.77;;;7.80;1.00;;;;;;5050545;28;20791;-69
2023/03/19 02:08:02;;;;;;;22.53;19.20;;;7.90;1.00;;;;;;5039613;28;20195;-69
2023/03/19 02:10:30;;;;;;;15.27;13.67;;;7.90;1.00;;;;;;5049050;28;20286;-67
2023/03/19 02:12:58;;;;;;;16.13;14.43;;;7.90;1.00;;;;;;5022387;28;20199;-67
2023/03/19 02:15:25;;;;;;;16.43;13.40;;;7.90;1.00;;;;;;5036614;28;20705;-68
2023/03/19 02:17:53;;;;;;;17.00;13.67;;;7.80;99.90;;;;;;5018291;28;20200;-70
2023/03/19 02:20:36;;;;;;;16.03;13.43;;;7.80;99.90;;;;;;5041328;28;20540;-68
2023/03/19 02:23:42;;;;;;;15.20;12.57;;;7.90;99.90;;;;;;5023861;28;20190;-67
2023/03/19 02:26:19;;;;;;;15.33;12.77;;;8.00;99.90;;;;;;5029800;28;20223;-69
2023/03/19 02:28:51;;;;;;;12.87;11.47;;;8.00;1.00;;;;;;5057807;28;21733;-69
2023/03/19 02:31:26;;;;;;;15.77;11.87;;;8.10;1.00;;;;;;5038403;28;20559;-71
2023/03/19 02:34:20;;;;;;;12.43;11.23;;;8.10;1.00;;;;;;5040882;28;20207;-72
2023/03/19 02:36:54;;;;;;;12.27;10.97;;;8.10;1.00;;;;;;5039673;28;20262;-69
2023/03/19 02:39:34;;;;;;;14.67;10.93;;;7.90;1.00;;;;;;5038337;28;20257;-68
2023/03/19 02:42:02;;;;;;;17.27;11.20;;;7.80;1.00;;;;;;5038874;28;20299;-68
2023/03/19 02:44:30;;;;;;;12.23;10.93;;;7.60;1.00;;;;;;5039026;28;20207;-67
2023/03/19 02:46:58;;;;;;;11.50;10.30;;;7.50;1.00;;;;;;5023024;28;20227;-68
2023/03/19 02:49:26;;;;;;;12.07;10.20;;;7.40;1.00;;;;;;5022165;28;20233;-67
2023/03/19 02:51:53;;;;;;;15.13;11.37;;;7.40;1.00;;;;;;5038813;28;20191;-69
2023/03/19 02:54:21;;;;;;;12.80;10.60;;;7.40;99.90;;;;;;5021014;28;20299;-69
2023/03/19 02:56:49;;;;;;;15.07;11.20;;;7.40;99.90;;;;;;5040344;28;20608;-69
2023/03/19 02:59:17;;;;;;;12.77;10.47;;;7.30;99.90;;;;;;5039837;28;20203;-69
2023/03/19 03:01:44;;;;;;;13.53;10.50;;;7.40;99.90;;;;;;5040634;28;20260;-70
2023/03/19 03:04:11;;;;;;;12.77;11.30;;;7.40;99.90;;;;;;5010294;28;20644;-71
2023/03/19 03:06:38;;;;;;;12.90;11.63;;;7.40;99.90;;;;;;4987837;28;20279;-70
2023/03/19 03:09:05;;;;;;;12.93;11.50;;;7.40;99.90;;;;;;4992487;28;20244;-72
2023/03/19 03:11:32;;;;;;;12.47;11.00;;;7.40;99.90;;;;;;4992788;28;20204;-68
2023/03/19 03:13:59;;;;;;;12.70;10.83;;;7.40;99.90;;;;;;5000029;28;20201;-69
2023/03/19 03:16:26;;;;;;;14.80;11.80;;;7.50;99.90;;;;;;5005054;28;20259;-72
2023/03/19 03:18:53;;;;;;;14.30;10.60;;;7.60;99.90;;;;;;4998354;28;20218;-68
2023/03/19 03:21:22;;;;;;;18.07;11.27;;;7.70;56.30;;;;;;4993173;28;20254;-70
2023/03/19 03:23:50;;;;;;;12.53;11.10;;;7.80;1.00;;;;;;4978882;28;20201;-70
2023/03/19 03:26:17;;;;;;;11.63;9.77;;;7.80;1.00;;;;;;4988937;28;20240;-69
2023/03/19 03:28:44;;;;;;;12.97;9.67;;;7.70;1.00;;;;;;4980423;28;20255;-68
2023/03/19 03:31:13;;;;;;;10.13;9.13;;;7.70;1.00;;;;;;4989281;28;20722;-68
2023/03/19 03:33:42;;;;;;;14.73;8.83;;;7.70;1.00;;;;;;4995163;28;20201;-68
2023/03/19 03:36:10;;;;;;;10.63;8.50;;;7.60;1.00;;;;;;4997063;28;20287;-68
2023/03/19 03:38:37;;;;;;;10.20;9.10;;;7.40;1.00;;;;;;4995008;28;20206;-68
2023/03/19 03:41:05;;;;;;;14.53;9.43;;;7.30;1.00;;;;;;5011560;28;20270;-68
2023/03/19 03:43:32;;;;;;;14.60;9.40;;;7.20;1.00;;;;;;5010376;28;20206;-68
2023/03/19 03:46:00;;;;;;;12.03;8.43;;;7.20;1.00;;;;;;5002226;28;20205;-69
2023/03/19 03:48:27;;;;;;;10.20;8.20;;;7.20;1.00;;;;;;5008806;28;20213;-68
2023/03/19 03:50:54;;;;;;;9.40;7.50;;;7.20;1.00;;;;;;5000720;28;20209;-68
2023/03/19 03:53:25;;;;;;;12.87;7.97;;;7.10;1.00;;;;;;5008227;28;20662;-68
2023/03/19 03:55:52;;;;;;;9.43;7.90;;;7.10;1.00;;;;;;4999958;28;20319;-68
2023/03/19 03:58:23;;;;;;;10.10;7.73;;;7.00;1.00;;;;;;4999603;28;20244;-68
2023/03/19 04:00:51;;;;;;;10.03;8.80;;;6.90;1.00;;;;;;4998187;28;20213;-66
2023/03/19 04:03:18;;;;;;;10.50;8.43;;;6.80;1.00;;;;;;4992669;28;20236;-68
2023/03/19 04:05:45;;;;;;;10.07;8.70;;;6.90;1.00;;;;;;5040737;28;20192;-68
2023/03/19 04:08:13;;;;;;;10.73;8.77;;;6.80;1.00;;;;;;5039033;28;20232;-71
2023/03/19 04:10:41;;;;;;;9.70;8.70;;;6.80;1.00;;;;;;5037325;28;20739;-68
2023/03/19 04:13:09;;;;;;;9.83;8.50;;;6.90;1.00;;;;;;5039619;28;20268;-68
2023/03/19 04:15:38;;;;;;;9.30;8.37;;;6.90;1.00;;;;;;5014598;28;20201;-68
2023/03/19 04:18:05;;;;;;;10.63;8.27;;;7.00;1.00;;;;;;5027931;28;20569;-69
2023/03/19 04:20:32;;;;;;;11.53;8.40;;;7.10;1.00;;;;;;5013636;28;20203;-68
2023/03/19 04:23:00;;;;;;;10.00;8.20;;;7.20;1.00;;;;;;5040747;28;20287;-66
2023/03/19 04:25:28;;;;;;;11.87;8.80;;;7.30;1.00;;;;;;5038636;28;20663;-70
2023/03/19 04:27:56;;;;;;;10.30;9.10;;;7.40;1.00;;;;;;5042369;28;20249;-70
2023/03/19 04:30:26;;;;;;;8.70;7.30;;;7.50;1.00;;;;;;5023500;28;20193;-70
2023/03/19 04:32:55;;;;;;;8.40;7.03;;;7.50;1.00;;;;;;5022318;28;20202;-70
2023/03/19 04:35:22;;;;;;;9.00;6.97;;;7.60;1.00;;;;;;5013523;28;20197;-69
2023/03/19 04:37:49;;;;;;;7.33;6.53;;;7.70;99.90;;;;;;5021724;28;20627;-69
2023/03/19 04:40:19;;;;;;;9.33;7.40;;;7.70;99.90;;;;;;5020920;28;20565;-70
2023/03/19 04:42:47;;;;;;;8.40;6.77;;;7.80;99.90;;;;;;5021544;28;20212;-70
2023/03/19 04:45:30;;;;;;;9.40;6.57;;;7.80;99.90;;;;;;5020455;28;20200;-69
2023/03/19 04:47:57;;;;;;;9.17;7.23;;;7.80;22.80;;;;;;5023105;28;20224;-69
2023/03/19 04:50:26;;;;;;;8.23;6.27;;;7.70;1.00;;;;;;5035161;28;20195;-73
2023/03/19 04:52:54;;;;;;;8.97;6.30;;;7.80;1.00;;;;;;5021702;28;20207;-71
2023/03/19 04:55:23;;;;;;;8.97;6.30;;;7.90;1.00;;;;;;5020473;28;20260;-71
2023/03/19 04:57:59;;;;;;;8.47;7.00;;;7.90;1.00;;;;;;5029891;28;20270;-70
2023/03/19 05:00:29;;;;;;;6.90;6.30;;;8.00;1.00;;;;;;4991110;28;20216;-69
2023/03/19 05:02:57;;;;;;;8.83;6.67;;;8.00;1.00;;;;;;5039351;28;20673;-69
2023/03/19 05:05:26;;;;;;;11.27;7.13;;;8.00;1.00;;;;;;5023101;28;20223;-70
2023/03/19 05:07:53;;;;;;;7.67;6.83;;;8.00;1.00;;;;;;5041206;28;20630;-70
2023/03/19 05:10:20;;;;;;;9.27;7.07;;;8.00;1.00;;;;;;5038415;28;20196;-70
2023/03/19 05:12:47;;;;;;;10.70;7.03;;;8.10;1.00;;;;;;5039539;28;20666;-70
2023/03/19 05:15:15;;;;;;;7.57;6.80;;;8.10;1.00;;;;;;5021687;28;20611;-68
2023/03/19 05:17:52;;;;;;;11.10;7.17;;;8.10;1.00;;;;;;5022239;28;20211;-69
2023/03/19 05:20:27;;;;;;;9.30;6.37;;;8.10;1.00;;;;;;5022736;28;20679;-69
2023/03/19 05:23:00;;;;;;;7.70;6.40;;;8.20;1.00;;;;;;5019868;28;20215;-69
2023/03/19 05:25:41;;;;;;;7.83;6.93;;;8.20;1.00;;;;;;5037848;28;20211;-68
2023/03/19 05:28:11;;;;;;;11.17;7.00;;;8.20;1.00;;;;;;5020625;28;20587;-71
2023/03/19 05:30:39;;;;;;;10.77;6.97;;;8.20;1.00;;;;;;5039994;28;20265;-68
2023/03/19 05:33:26;;;;;;;7.53;6.17;;;8.20;1.00;;;;;;5024703;28;20605;-68
2023/03/19 05:35:53;;;;;;;7.67;6.53;;;8.30;1.00;;;;;;5013929;28;20196;-69
2023/03/19 05:38:30;;;;;;;7.73;6.73;;;8.20;1.00;;;;;;5020176;28;20199;-68
2023/03/19 05:41:04;;;;;;;9.67;7.33;;;8.20;1.00;;;;;;5019947;28;20203;-68
2023/03/19 05:43:41;;;;;;;9.13;7.53;;;8.20;1.00;;;;;;5019806;28;20204;-68
2023/03/19 05:46:16;;;;;;;8.27;7.10;;;8.10;1.00;;;;;;5024168;28;20211;-70
2023/03/19 05:48:43;;;;;;;9.97;6.70;;;8.20;1.00;;;;;;5011934;28;20715;-68
2023/03/19 05:51:11;;;;;;;9.70;7.03;;;8.10;1.00;;;;;;5036075;28;20658;-69
2023/03/19 05:53:41;;;;;;;9.03;8.07;;;8.10;1.00;;;;;;5018616;28;20254;-68
2023/03/19 05:56:30;;;;;;;9.77;7.03;;;8.20;1.00;;;;;;5039050;28;20341;-68
2023/03/19 05:59:15;;;;;;;9.27;7.10;;;8.20;1.00;;;;;;5021237;28;20805;-69
2023/03/19 06:01:50;;;;;;;8.37;7.20;;;8.30;1.00;;;;;;5018391;28;20254;-69
2023/03/19 06:04:17;;;;;;;10.23;6.70;;;8.40;1.00;;;;;;5038967;28;20235;-69
2023/03/19 06:06:44;;;;;;;9.73;7.30;;;8.40;1.00;;;;;;5005262;28;20626;-68
2023/03/19 06:09:11;;;;;;;7.87;7.00;;;8.50;1.00;;;;;;5029009;28;20219;-70
2023/03/19 06:11:41;;;;;;;8.10;7.30;;;8.60;1.00;;;;;;5038478;28;20211;-71
2023/03/19 06:14:31;;;;;;;7.43;6.50;;;8.60;1.00;;;;;;5023165;28;20200;-70
2023/03/19 06:17:27;;;;;;;8.90;6.80;;;8.70;1.00;;;;;;4951691;28;20218;-70
2023/03/19 06:19:59;;;;;;;10.80;6.73;;;8.70;1.00;;;;;;5007345;28;20789;-71
2023/03/19 06:22:26;;;;;;;7.03;6.20;;;8.70;1.00;;;;;;5039712;28;20198;-70
2023/03/19 06:24:53;;;;;;;7.73;6.57;;;8.70;1.00;;;;;;5036998;28;20199;-70
2023/03/19 06:27:20;;;;;;;10.10;7.03;;;8.60;1.00;;;;;;5021031;28;20314;-74
2023/03/19 06:29:47;;;;;;;13.20;8.67;;;8.60;1.00;;;;;;5018936;28;20204;-70
2023/03/19 06:32:23;;;;;;;10.77;7.53;;;8.60;1.00;;;;;;5004868;28;20195;-69
2023/03/19 06:34:52;;;;;;;7.13;6.43;;;8.60;1.00;;;;;;5019680;28;20204;-68
2023/03/19 06:37:19;;;;;;;10.60;6.67;;;8.60;1.00;;;;;;5012640;28;20295;-73
2023/03/19 06:39:47;;;;;;;6.90;6.20;;;8.60;1.00;;;;;;5037830;28;20200;-70
2023/03/19 06:42:14;;;;;;;12.60;6.47;;;8.70;1.00;;;;;;5036458;28;20200;-71
2023/03/19 06:44:41;;;;;;;9.17;6.27;;;8.80;1.00;;;;;;5003958;28;20666;-71
2023/03/19 06:47:08;;;;;;;6.77;5.77;;;8.90;1.00;;;;;;5034789;28;20295;-68
2023/03/19 06:49:38;;;;;;;6.50;5.80;;;9.00;99.90;;;;;;5021279;28;20207;-68
2023/03/19 06:52:06;;;;;;;7.07;5.77;;;9.10;99.90;;;;;;5020144;28;20211;-68
2023/03/19 06:54:33;;;;;;;10.33;6.20;;;9.20;99.90;;;;;;5037087;28;20215;-70
2023/03/19 06:57:01;;;;;;;6.67;5.57;;;9.90;99.90;;;;;;5034837;28;20650;-67
2023/03/19 06:59:28;;;;;;;6.17;5.27;;;11.00;99.90;;;;;;5037608;28;20280;-69
2023/03/19 07:01:55;;;;;;;8.63;5.60;;;13.40;51.80;;;;;;5024510;28;20667;-70
2023/03/19 07:04:22;;;;;;;7.30;4.40;;;16.10;1.00;;;;;;5036314;28;20762;-69
2023/03/19 07:06:49;;;;;;;4.50;4.07;;;17.10;1.00;;;;;;5032969;28;20263;-69
2023/03/19 07:09:16;;;;;;;4.70;3.40;;;18.30;1.00;;;;;;5026602;28;20294;-66
2023/03/19 07:11:43;;;;;;;4.05;3.05;;;19.10;1.00;;;;;;5005374;28;20333;-67
2023/03/19 07:14:10;;;;;;;3.67;2.85;;;17.30;1.00;;;;;;5017295;28;20288;-69
2023/03/19 07:16:38;;;;;;;5.90;3.15;;;14.90;1.00;;;;;;5035727;28;20725;-69
2023/03/19 07:19:06;;;;;;;3.80;2.67;;;13.80;1.00;;;;;;5011156;28;20200;-69
2023/03/19 07:21:32;;;;;;;3.60;2.97;;;13.90;1.00;;;;;;5022140;28;20286;-69
2023/03/19 07:23:59;;;;;;;7.30;2.85;;;13.90;1.00;;;;;;5021261;28;20230;-69
2023/03/19 07:26:26;;;;;;;5.80;2.47;;;15.30;1.00;;;;;;5041273;28;20275;-68
2023/03/19 07:28:53;;;;;;;6.07;3.47;;;14.70;1.00;;;;;;5040094;28;20291;-71
2023/03/19 07:31:20;;;;;;;6.65;3.55;;;14.40;1.00;;;;;;5040309;28;20286;-70
2023/03/19 07:33:47;;;;;;;4.80;3.25;;;13.90;1.00;;;;;;5040229;28;20235;-70
2023/03/19 07:36:15;;;;;;;5.88;2.75;;;13.90;1.00;;;;;;5041027;28;20191;-68
2023/03/19 07:38:42;;;;;;;4.38;3.30;;;13.50;1.00;;;;;;5038523;28;20246;-69
2023/03/19 07:41:09;;;;;;;4.82;2.28;;;13.40;1.00;;;;;;5021155;28;20239;-68
2023/03/19 07:43:36;;;;;;;7.37;2.70;;;13.20;1.00;;;;;;5022839;28;20203;-69
2023/03/19 07:46:03;;;;;;;6.97;2.53;;;12.80;1.00;;;;;;5035617;28;20184;-68
2023/03/19 07:48:30;;;;;;;6.90;2.20;;;12.70;1.00;;;;;;5035666;28;20211;-68
2023/03/19 07:50:57;;;;;;;4.97;2.60;;;12.60;1.00;;;;;;5019389;28;20659;-69
2023/03/19 07:53:24;;;;;;;5.80;2.53;;;12.90;1.00;;;;;;5035724;28;20321;-69
2023/03/19 07:55:51;;;;;;;8.03;2.40;;;13.50;1.00;;;;;;5037286;28;20331;-69
2023/03/19 07:58:18;;;;;;;4.13;2.20;;;14.70;1.00;;;;;;5021581;28;20655;-69
2023/03/19 08:00:46;;;;;;;4.60;2.30;;;17.20;1.00;;;;;;5039117;28;20283;-71
2023/03/19 08:03:13;;;;;;;4.82;2.60;;;16.50;1.00;;;;;;5040282;28;20231;-69
2023/03/19 08:05:40;;;;;;;4.15;2.92;;;15.40;1.00;;;;;;5039668;28;20233;-68
2023/03/19 08:08:07;;;;;;;4.00;2.20;;;15.20;1.00;;;;;;5038077;28;20227;-69
2023/03/19 08:10:34;;;;;;;3.63;1.90;;;15.30;1.00;;;;;;5021397;28;20247;-68
2023/03/19 08:13:04;;;;;;;4.00;2.15;;;15.30;1.00;;;;;;5023089;28;20187;-69
2023/03/19 08:15:31;;;;;;;3.22;1.90;;;15.30;1.00;;;;;;5032627;28;20215;-68
2023/03/19 08:17:59;;;;;;;5.00;2.17;;;15.50;1.00;;;;;;5037716;28;20224;-67
2023/03/19 08:20:26;;;;;;;4.28;2.55;;;18.20;1.00;;;;;;5036894;28;20203;-67
2023/03/19 08:22:55;;;;;;;4.60;2.33;;;19.40;1.00;;;;;;5019600;28;20639;-67
2023/03/19 08:25:23;;;;;;;8.82;4.45;;;19.40;1.00;;;;;;5020787;28;20227;-66
2023/03/19 08:27:50;;;;;;;6.75;4.68;;;21.70;1.00;;;;;;5037456;28;20546;-65
2023/03/19 08:30:17;;;;;;;10.57;6.53;;;21.30;1.00;;;;;;5037873;28;20192;-68
2023/03/19 08:32:44;;;;;;;21.25;14.05;;;20.20;1.00;;;;;;5037727;28;20707;-68
2023/03/19 08:35:11;;;;;;;11.10;7.20;;;18.50;1.00;;;;;;5020516;28;20192;-70
2023/03/19 08:37:38;;;;;;;10.27;6.43;;;17.20;1.00;;;;;;5029176;28;20261;-70
2023/03/19 08:40:06;;;;;;;9.20;5.93;;;16.20;1.00;;;;;;5019911;28;20615;-68
2023/03/19 08:42:33;;;;;;;4.53;4.13;;;16.10;1.00;;;;;;5019879;28;20881;-69
2023/03/19 08:45:00;;;;;;;6.25;5.05;;;16.00;1.00;;;;;;5038630;28;20207;-68
2023/03/19 08:47:27;;;;;;;5.20;4.35;;;15.60;1.00;;;;;;5037451;28;20220;-68
2023/03/19 08:49:54;;;;;;;8.25;7.45;;;15.50;1.00;;;;;;5037385;28;20921;-69
2023/03/19 08:52:22;;;;;;;13.05;11.05;;;16.10;1.00;;;;;;5039008;28;20238;-68
2023/03/19 08:54:49;;;;;;;6.65;5.95;;;17.20;1.00;;;;;;5037440;28;20275;-68
2023/03/19 08:57:16;;;;;;;7.20;4.47;;;18.10;1.00;;;;;;5038596;28;20193;-69
2023/03/19 08:59:43;;;;;;;11.70;9.77;;;19.70;1.00;;;;;;5020285;28;20200;-69
2023/03/19 09:02:11;;;;;;;5.32;4.75;;;21.20;1.00;;;;;;5035022;28;20226;-67
2023/03/19 09:04:42;;;;;;;5.47;4.00;;;22.60;1.00;;;;;;5037329;28;20286;-67
2023/03/19 09:07:14;;;;;;;5.75;4.22;;;20.80;1.00;;;;;;5028046;28;20667;-66
2023/03/19 09:09:42;;;;;;;3.53;3.22;;;21.20;1.00;;;;;;5036285;28;20192;-68
2023/03/19 09:12:12;;;;;;;4.43;4.03;;;20.30;1.00;;;;;;5036163;28;20246;-68
2023/03/19 09:14:40;;;;;;;4.53;3.58;;;20.60;1.00;;;;;;5037388;28;20192;-66
2023/03/19 09:17:07;;;;;;;4.25;3.85;;;20.10;1.00;;;;;;5034608;28;20194;-67
2023/03/19 09:19:35;;;;;;;3.85;3.55;;;18.90;1.00;;;;;;5037756;28;20208;-67
2023/03/19 09:22:03;;;;;;;7.28;5.20;;;20.40;1.00;;;;;;5035296;28;20204;-69
2023/03/19 09:24:30;;;;;;;5.35;3.67;;;21.90;1.00;;;;;;5035450;28;20188;-68
2023/03/19 09:26:57;;;;;;;3.40;3.10;;;24.00;1.00;;;;;;5034562;28;20280;-68
2023/03/19 09:29:24;;;;;;;4.20;2.70;;;27.70;1.00;;;;;;5035700;28;20211;-68
2023/03/19 09:31:51;;;;;;;3.25;2.95;;;31.40;1.00;;;;;;5035263;28;20206;-69
2023/03/19 09:34:18;;;;;;;3.28;2.95;;;34.00;1.00;;;;;;5035141;28;20213;-68
2023/03/19 09:36:45;;;;;;;3.95;2.70;;;35.30;1.00;;;;;;5036126;28;20222;-67
2023/03/19 09:39:12;;;;;;;3.55;2.72;;;36.20;1.00;;;;;;5009464;28;20574;-70
2023/03/19 09:42:20;;;;;;;3.00;2.75;;;33.40;1.00;;;;;;5014831;28;20243;-68
2023/03/19 09:44:48;;;;;;;4.03;3.28;;;30.90;1.00;;;;;;4975644;28;20316;-68
2023/03/19 09:47:38;;;;;;;6.45;3.50;;;29.20;1.00;;;;;;5022491;28;20594;-67
2023/03/19 09:50:31;;;;;;;4.85;3.65;;;25.20;1.00;;;;;;5034799;28;20802;-68
2023/03/19 09:53:02;;;;;;;6.75;4.72;;;23.20;1.00;;;;;;5017289;28;20211;-69
2023/03/19 09:55:32;;;;;;;5.85;4.60;;;24.30;1.00;;;;;;5018371;28;20712;-68
2023/03/19 09:58:01;;;;;;;3.97;3.65;;;25.00;1.00;;;;;;5002181;28;20204;-69
2023/03/19 10:00:37;;;;;;;4.72;3.65;;;26.50;1.00;;;;;;4999550;28;20398;-67
2023/03/19 10:03:11;;;;;;;7.20;6.53;;;21.40;1.00;;;;;;5017947;28;20199;-68
2023/03/19 10:05:56;;;;;;;5.45;4.28;;;25.30;1.00;;;;;;5015401;28;20710;-69
2023/03/19 10:08:30;;;;;;;4.30;3.75;;;29.20;1.00;;;;;;5033453;28;20583;-71
2023/03/19 10:11:58;;;;;;;4.45;3.38;;;29.40;1.00;;;;;;5014180;28;20183;-69
2023/03/19 10:14:59;;;;;;;3.30;3.00;;;31.00;1.00;;;;;;4984308;28;20701;-69
2023/03/19 10:17:52;;;;;;;2.95;2.42;;;31.70;1.00;;;;;;4979602;28;21031;-68
2023/03/19 10:20:30;;;;;;;3.03;2.72;;;28.10;1.00;;;;;;5042129;28;20287;-70
2023/03/19 10:23:25;;;;;;;3.35;2.50;;;24.70;1.00;;;;;;5016156;28;20199;-68
2023/03/19 10:25:56;;;;;;;3.53;3.10;;;23.00;1.00;;;;;;5033784;28;20195;-70
2023/03/19 10:28:27;;;;;;;3.38;3.08;;;24.60;1.00;;;;;;5008707;28;20731;-70
2023/03/19 10:30:59;;;;;;;4.80;4.03;;;25.30;1.00;;;;;;5032803;28;20191;-67
2023/03/19 10:33:51;;;;;;;3.60;3.30;;;24.50;1.00;;;;;;5016370;28;20945;-69
2023/03/19 10:36:23;;;;;;;4.03;3.13;;;28.10;1.00;;;;;;5019341;28;20208;-68
2023/03/19 10:38:50;;;;;;;4.20;3.30;;;24.70;1.00;;;;;;5032820;28;20226;-68
2023/03/19 10:41:42;;;;;;;6.55;4.07;;;26.30;1.00;;;;;;5032754;28;20235;-69
2023/03/19 10:44:33;;;;;;;3.83;3.42;;;24.80;1.00;;;;;;5034008;28;20203;-68
2023/03/19 10:47:12;;;;;;;5.22;3.30;;;25.00;1.00;;;;;;5033628;28;20192;-69
2023/03/19 10:49:39;;;;;;;3.75;3.15;;;23.50;1.00;;;;;;5036187;28;20749;-69
2023/03/19 10:52:20;;;;;;;4.43;3.28;;;24.30;1.00;;;;;;5017254;28;20883;-70
2023/03/19 10:54:54;;;;;;;3.65;3.33;;;29.10;1.00;;;;;;5037908;28;20274;-69
2023/03/19 10:57:27;;;;;;;3.78;3.03;;;30.70;1.00;;;;;;5038955;28;20196;-68
2023/03/19 10:59:54;;;;;;;3.25;2.92;;;30.30;1.00;;;;;;5029965;28;20258;-69
2023/03/19 11:02:26;;;;;;;3.50;3.20;;;28.00;1.00;;;;;;5020666;28;20200;-68
2023/03/19 11:05:12;;;;;;;4.45;3.17;;;24.80;1.00;;;;;;5033372;28;20861;-67
2023/03/19 11:07:39;;;;;;;2.95;2.65;;;24.90;1.00;;;;;;5035925;28;20310;-69
2023/03/19 11:10:18;;;;;;;5.47;2.78;;;27.80;1.00;;;;;;5036308;28;20275;-70
2023/03/19 11:13:04;;;;;;;3.35;3.05;;;29.70;1.00;;;;;;5040000;28;20670;-70
2023/03/19 11:15:37;;;;;;;3.33;3.03;;;27.00;1.00;;;;;;5040437;28;20188;-69
2023/03/19 11:18:27;;;;;;;3.83;2.95;;;25.20;1.00;;;;;;5039252;28;20258;-69
2023/03/19 11:21:04;;;;;;;3.00;2.70;;;25.40;1.00;;;;;;5039615;28;20207;-69
2023/03/19 11:23:40;;;;;;;4.65;3.30;;;24.40;1.00;;;;;;5039680;28;20219;-68
2023/03/19 11:26:08;;;;;;;4.53;3.00;;;22.40;1.00;;;;;;5040548;28;20285;-69
2023/03/19 11:28:36;;;;;;;3.17;2.88;;;21.80;1.00;;;;;;5039540;28;20220;-69
2023/03/19 11:31:25;;;;;;;3.08;2.83;;;22.00;1.00;;;;;;5040274;28;20724;-70
2023/03/19 11:34:13;;;;;;;2.83;2.58;;;23.60;1.00;;;;;;5040564;28;20212;-69
2023/03/19 11:36:43;;;;;;;2.80;2.05;;;24.30;1.00;;;;;;5039320;28;20192;-69
2023/03/19 11:39:34;;;;;;;2.55;2.35;;;24.60;1.00;;;;;;5021250;28;20208;-69
2023/03/19 11:42:41;;;;;;;3.28;2.40;;;23.80;1.00;;;;;;5038046;28;20538;-68
2023/03/19 11:45:25;;;;;;;2.70;2.30;;;25.70;1.00;;;;;;5037101;28;20210;-70
2023/03/19 11:47:56;;;;;;;3.00;2.60;;;27.10;1.00;;;;;;5037951;28;20709;-69
2023/03/19 11:50:38;;;;;;;3.03;2.25;;;27.70;1.00;;;;;;5040146;28;20609;-69
2023/03/19 11:53:22;;;;;;;3.10;2.08;;;28.30;1.00;;;;;;5039985;28;20188;-68
2023/03/19 11:56:03;;;;;;;3.72;2.70;;;29.10;1.00;;;;;;5038203;28;20230;-69
2023/03/19 11:58:58;;;;;;;3.40;3.10;;;27.40;1.00;;;;;;5038753;28;20677;-70
2023/03/19 12:02:10;;;;;;;3.03;2.72;;;26.60;1.00;;;;;;5029696;28;20261;-70
2023/03/19 12:04:49;;;;;;;3.47;3.17;;;24.70;1.00;;;;;;4962197;28;20231;-70
2023/03/19 12:07:36;;;;;;;3.13;2.83;;;25.50;1.00;;;;;;5020931;28;20231;-70
2023/03/19 12:10:06;;;;;;;4.07;3.42;;;25.30;1.00;;;;;;5019265;28;20207;-69
2023/03/19 12:12:47;;;;;;;4.30;3.33;;;24.10;1.00;;;;;;5016840;28;20230;-69
2023/03/19 12:15:45;;;;;;;4.50;4.10;;;21.60;1.00;;;;;;5038510;28;20273;-71
2023/03/19 12:18:18;;;;;;;5.65;4.03;;;21.00;1.00;;;;;;5036584;28;20249;-68
2023/03/19 12:21:02;;;;;;;4.78;4.38;;;21.60;1.00;;;;;;5038107;28;20226;-68
2023/03/19 12:23:58;;;;;;;4.40;3.95;;;21.30;1.00;;;;;;5017869;28;20294;-69
2023/03/19 12:26:52;;;;;;;4.57;4.10;;;22.20;1.00;;;;;;5019155;28;20286;-69
2023/03/19 12:29:26;;;;;;;5.00;4.50;;;21.20;1.00;;;;;;5025072;28;20788;-68
2023/03/19 12:32:08;;;;;;;5.18;4.68;;;21.20;1.00;;;;;;5035037;28;20198;-69
2023/03/19 12:34:48;;;;;;;5.45;4.70;;;20.10;1.00;;;;;;5016456;28;20671;-69
2023/03/19 12:37:40;;;;;;;4.82;4.43;;;20.00;1.00;;;;;;5017376;28;20268;-69
2023/03/19 12:40:20;;;;;;;6.53;4.05;;;19.70;1.00;;;;;;5008565;28;20279;-67
2023/03/19 12:42:47;;;;;;;5.95;3.75;;;19.10;1.00;;;;;;5034145;28;20282;-68
2023/03/19 12:45:23;;;;;;;4.53;4.00;;;19.70;1.00;;;;;;5006564;28;20285;-70
2023/03/19 12:48:21;;;;;;;4.97;4.07;;;18.70;1.00;;;;;;5038200;28;20264;-70
2023/03/19 12:50:53;;;;;;;4.88;4.35;;;18.60;1.00;;;;;;5028018;28;20208;-70
2023/03/19 12:53:41;;;;;;;4.20;3.80;;;19.00;1.00;;;;;;5035986;28;20201;-70
2023/03/19 12:56:22;;;;;;;4.85;3.97;;;18.80;1.00;;;;;;5037986;28;21096;-69
2023/03/19 12:58:53;;;;;;;4.55;4.15;;;18.50;1.00;;;;;;5038199;28;20724;-70
2023/03/19 13:01:41;;;;;;;4.53;3.97;;;18.60;1.00;;;;;;5017077;28;20662;-70
2023/03/19 13:04:17;;;;;;;4.63;4.13;;;19.10;1.00;;;;;;5020427;28;20315;-72
2023/03/19 13:06:48;;;;;;;4.82;4.32;;;18.90;1.00;;;;;;5036347;28;20682;-69
2023/03/19 13:09:27;;;;;;;5.93;4.22;;;18.40;1.00;;;;;;5035102;28;20787;-69
2023/03/19 13:12:17;;;;;;;5.13;4.00;;;18.80;1.00;;;;;;5036831;28;20590;-70
2023/03/19 13:14:52;;;;;;;5.07;4.57;;;18.80;1.00;;;;;;5037987;28;20202;-71
2023/03/19 13:17:40;;;;;;;4.65;3.95;;;18.40;1.00;;;;;;5037684;28;20576;-69
2023/03/19 13:20:22;;;;;;;4.50;4.10;;;19.10;1.00;;;;;;5035282;28;20752;-69
2023/03/19 13:22:55;;;;;;;4.05;3.50;;;19.60;1.00;;;;;;5035051;28;21145;-70
2023/03/19 13:25:47;;;;;;;4.20;3.70;;;19.70;1.00;;;;;;5031344;28;20210;-68